createdAt,value
2019-01-21T00:00:42.884Z,21.12
2019-01-21T00:01:35.758Z,20.25
2019-01-21T00:02:21.975Z,21.33
2019-01-21T00:03:14.395Z,20.30
2019-01-21T00:03:56.567Z,20.62
2019-01-21T00:04:43.075Z,19.42
2019-01-21T00:05:29.014Z,19.80
2019-01-21T00:06:15.464Z,20.00
2019-01-21T00:07:01.419Z,20.55
2019-01-21T00:07:47.472Z,21.17
2019-01-21T00:08:34.007Z,19.90
2019-01-21T00:09:20.676Z,21.25
2019-01-21T00:10:08.671Z,19.90
2019-01-21T00:10:55.016Z,19.07
2019-01-21T00:11:41.830Z,19.98
2019-01-21T00:12:28.401Z,20.43
2019-01-21T00:13:14.738Z,19.73
2019-01-21T00:14:01.332Z,20.00
2019-01-21T00:14:48.053Z,20.75
2019-01-21T00:15:34.161Z,20.12
2019-01-21T00:16:20.881Z,20.75
2019-01-21T00:17:08.234Z,20.17
2019-01-21T00:17:54.911Z,19.30
2019-01-21T00:18:41.415Z,20.70
2019-01-21T00:19:28.052Z,19.65
2019-01-21T00:20:14.182Z,20.70
2019-01-21T00:21:00.372Z,20.15
2019-01-21T00:21:46.239Z,20.72
2019-01-21T00:22:32.882Z,20.92
2019-01-21T00:23:19.157Z,19.27
2019-01-21T00:24:06.619Z,22.15
2019-01-21T00:24:54.207Z,20.52
2019-01-21T00:25:41.278Z,20.75
2019-01-21T00:26:27.725Z,19.20
2019-01-21T00:27:13.845Z,20.90
2019-01-21T00:27:59.735Z,21.02
2019-01-21T00:28:46.317Z,20.25
2019-01-21T00:29:32.678Z,20.43
2019-01-21T00:30:18.877Z,21.15
2019-01-21T00:31:05.001Z,21.35
2019-01-21T00:31:51.380Z,20.68
2019-01-21T00:32:37.321Z,20.52
2019-01-21T00:33:23.306Z,19.15
2019-01-21T00:34:09.235Z,21.12
2019-01-21T00:34:55.812Z,19.77
2019-01-21T00:35:42.105Z,21.33
2019-01-21T00:36:28.153Z,19.85
2019-01-21T00:37:14.623Z,20.65
2019-01-21T00:38:01.116Z,20.82
2019-01-21T00:38:47.600Z,19.50
2019-01-21T00:39:33.705Z,21.17
2019-01-21T00:40:20.269Z,20.20
2019-01-21T00:41:06.681Z,20.82
2019-01-21T00:41:52.785Z,21.48
2019-01-21T00:42:38.868Z,21.10
2019-01-21T00:43:24.831Z,20.17
2019-01-21T00:44:10.754Z,20.12
2019-01-21T00:44:57.221Z,20.65
2019-01-21T00:45:43.533Z,20.43
2019-01-21T00:46:29.409Z,21.33
2019-01-21T00:47:15.271Z,20.88
2019-01-21T00:48:02.426Z,20.02
2019-01-21T00:48:48.628Z,20.12
2019-01-21T00:49:35.092Z,21.77
2019-01-21T00:50:21.517Z,18.90
2019-01-21T00:51:08.000Z,20.08
2019-01-21T00:51:54.411Z,19.40
2019-01-21T00:52:40.588Z,21.20
2019-01-21T00:53:26.866Z,19.57
2019-01-21T00:54:13.314Z,18.82
2019-01-21T00:54:59.384Z,20.60
2019-01-21T00:55:45.600Z,19.77
2019-01-21T00:56:33.392Z,20.02
2019-01-21T00:57:20.849Z,19.02
2019-01-21T00:58:07.212Z,19.50
2019-01-21T00:58:53.722Z,19.67
2019-01-21T00:59:40.037Z,19.85
2019-01-21T01:00:26.346Z,19.50
2019-01-21T01:01:12.989Z,20.70
2019-01-21T01:01:58.943Z,20.75
2019-01-21T01:02:46.109Z,20.23
2019-01-21T01:03:33.711Z,20.00
2019-01-21T01:04:19.959Z,20.97
2019-01-21T01:05:07.707Z,19.98
2019-01-21T01:05:53.898Z,19.57
2019-01-21T01:06:39.898Z,19.25
2019-01-21T01:07:26.386Z,19.77
2019-01-21T01:08:12.399Z,20.02
2019-01-21T01:08:58.850Z,20.12
2019-01-21T01:09:44.974Z,19.52
2019-01-21T01:10:31.655Z,20.08
2019-01-21T01:11:18.264Z,20.37
2019-01-21T01:12:04.423Z,20.30
2019-01-21T01:12:51.029Z,20.43
2019-01-21T01:13:37.558Z,20.05
2019-01-21T01:14:23.412Z,19.48
2019-01-21T01:15:10.262Z,20.68
2019-01-21T01:15:56.390Z,19.12
2019-01-21T01:16:42.359Z,20.37
2019-01-21T01:17:28.763Z,20.08
2019-01-21T01:18:14.718Z,20.62
2019-01-21T01:19:00.527Z,19.40
2019-01-21T01:19:46.642Z,19.92
2019-01-21T01:20:32.839Z,19.80
2019-01-21T01:21:18.798Z,18.65
2019-01-21T01:22:05.205Z,19.98
2019-01-21T01:22:51.027Z,19.10
2019-01-21T01:23:37.008Z,20.50
2019-01-21T01:24:24.158Z,19.65
2019-01-21T01:25:10.503Z,19.70
2019-01-21T01:25:56.486Z,19.57
2019-01-21T01:26:42.509Z,19.27
2019-01-21T01:27:28.522Z,19.80
2019-01-21T01:28:14.815Z,20.62
2019-01-21T01:29:00.997Z,19.40
2019-01-21T01:29:47.600Z,19.32
2019-01-21T01:30:33.799Z,18.62
2019-01-21T01:31:20.300Z,18.62
2019-01-21T01:32:06.694Z,18.80
2019-01-21T01:32:52.591Z,18.80
2019-01-21T01:33:38.970Z,20.23
2019-01-21T01:34:24.866Z,20.00
2019-01-21T01:35:17.092Z,20.12
2019-01-21T01:36:03.495Z,19.00
2019-01-21T01:36:49.958Z,18.98
2019-01-21T01:37:36.036Z,19.02
2019-01-21T01:38:22.059Z,19.98
2019-01-21T01:39:08.313Z,18.77
2019-01-21T01:39:54.699Z,19.77
2019-01-21T01:40:41.075Z,18.37
2019-01-21T01:41:27.099Z,20.05
2019-01-21T01:42:13.468Z,19.90
2019-01-21T01:42:59.658Z,18.67
2019-01-21T01:43:46.091Z,19.17
2019-01-21T01:44:33.646Z,18.55
2019-01-21T01:45:22.327Z,19.12
2019-01-21T01:46:08.875Z,19.02
2019-01-21T01:46:55.325Z,19.12
2019-01-21T01:47:44.822Z,20.00
2019-01-21T01:48:29.787Z,19.07
2019-01-21T01:49:15.635Z,19.52
2019-01-21T01:50:01.938Z,18.92
2019-01-21T01:50:49.967Z,19.52
2019-01-21T01:51:36.196Z,18.37
2019-01-21T01:52:22.484Z,20.20
2019-01-21T01:53:08.909Z,18.95
2019-01-21T01:53:54.754Z,19.17
2019-01-21T01:54:40.662Z,19.32
2019-01-21T01:55:28.440Z,18.82
2019-01-21T01:56:14.563Z,19.55
2019-01-21T01:57:00.486Z,17.92
2019-01-21T01:57:46.343Z,18.77
2019-01-21T01:58:32.252Z,19.42
2019-01-21T01:59:19.883Z,18.45
2019-01-21T02:00:10.539Z,18.42
2019-01-21T02:00:56.679Z,18.55
2019-01-21T02:01:42.987Z,20.10
2019-01-21T02:02:28.949Z,18.42
2019-01-21T02:03:15.379Z,18.48
2019-01-21T02:04:01.455Z,18.40
2019-01-21T02:04:47.918Z,19.15
2019-01-21T02:05:37.175Z,18.70
2019-01-21T02:06:24.514Z,18.50
2019-01-21T02:07:11.145Z,19.87
2019-01-21T02:07:57.537Z,19.37
2019-01-21T02:08:43.472Z,19.70
2019-01-21T02:09:29.457Z,19.37
2019-01-21T02:10:15.717Z,19.15
2019-01-21T02:11:02.008Z,19.40
2019-01-21T02:11:48.287Z,19.62
2019-01-21T02:12:34.707Z,20.23
2019-01-21T02:13:21.397Z,18.40
2019-01-21T02:14:07.805Z,20.15
2019-01-21T02:14:53.827Z,20.70
2019-01-21T02:15:41.156Z,20.97
2019-01-21T02:16:29.267Z,19.95
2019-01-21T02:17:15.543Z,19.02
2019-01-21T02:18:03.270Z,19.90
2019-01-21T02:18:49.671Z,19.07
2019-01-21T02:19:37.635Z,19.10
2019-01-21T02:20:23.809Z,19.67
2019-01-21T02:21:11.329Z,19.15
2019-01-21T02:21:59.126Z,19.02
2019-01-21T02:22:49.197Z,20.10
2019-01-21T02:23:37.022Z,19.15
2019-01-21T02:24:23.508Z,18.27
2019-01-21T02:25:10.084Z,19.60
2019-01-21T02:26:01.156Z,17.98
2019-01-21T02:26:58.294Z,18.20
2019-01-21T02:28:11.775Z,19.77
2019-01-21T02:29:18.216Z,18.10
2019-01-21T02:30:54.671Z,18.55
2019-01-21T02:32:46.869Z,17.52
2019-01-21T02:33:59.161Z,17.10
2019-01-21T02:35:07.594Z,17.87
2019-01-21T02:36:18.818Z,17.17
2019-01-21T02:37:46.509Z,17.67
2019-01-21T02:39:01.275Z,17.50
2019-01-21T02:40:25.897Z,17.50
2019-01-21T02:41:58.793Z,17.32
2019-01-21T02:43:28.217Z,16.60
2019-01-21T02:45:05.246Z,17.32
2019-01-21T02:46:17.928Z,18.10
2019-01-21T02:47:25.851Z,17.82
2019-01-21T02:48:51.812Z,17.70
2019-01-21T02:50:27.882Z,16.77
2019-01-21T02:51:58.772Z,17.42
2019-01-21T02:53:01.058Z,16.75
2019-01-21T02:54:15.975Z,17.95
2019-01-21T02:55:16.431Z,18.35
2019-01-21T02:56:28.373Z,19.07
2019-01-21T03:06:21.998Z,17.00
2019-01-21T03:07:19.388Z,17.10
2019-01-21T03:08:55.901Z,17.75
2019-01-21T03:10:35.438Z,17.92
2019-01-21T03:13:37.584Z,16.87
2019-01-21T03:15:03.353Z,18.30
2019-01-21T03:20:51.631Z,16.85
2019-01-21T03:25:02.285Z,17.98
2019-01-21T03:26:24.932Z,17.60
2019-01-21T03:27:44.307Z,18.73
2019-01-21T03:28:58.849Z,19.15
2019-01-21T03:30:06.277Z,18.50
2019-01-21T03:31:47.145Z,19.25
2019-01-21T03:32:54.511Z,19.20
2019-01-21T03:34:44.208Z,18.67
2019-01-21T03:36:16.625Z,19.32
2019-01-21T03:37:43.533Z,18.67
2019-01-21T03:38:58.711Z,19.05
2019-01-21T03:40:18.133Z,19.35
2019-01-21T03:41:28.961Z,18.40
2019-01-21T03:42:21.286Z,18.92
2019-01-21T03:43:29.458Z,19.80
2019-01-21T03:44:49.332Z,19.30
2019-01-21T03:45:55.107Z,18.20
2019-01-21T03:47:32.471Z,19.50
2019-01-21T03:48:46.092Z,19.23
2019-01-21T03:49:38.219Z,19.50
2019-01-21T03:50:52.148Z,20.82
2019-01-21T03:52:14.877Z,20.48
2019-01-21T03:53:36.265Z,19.02
2019-01-21T03:54:44.831Z,18.77
2019-01-21T03:55:32.370Z,19.87
2019-01-21T03:56:58.216Z,20.72
2019-01-21T03:58:09.406Z,19.57
2019-01-21T03:59:43.880Z,19.57
2019-01-21T04:00:42.885Z,19.32
2019-01-21T04:01:49.559Z,18.17
2019-01-21T04:03:14.371Z,20.35
2019-01-21T04:04:33.938Z,19.65
2019-01-21T04:06:09.863Z,20.10
2019-01-21T04:07:08.047Z,18.07
2019-01-21T04:08:10.903Z,19.98
2019-01-21T04:09:41.327Z,19.87
2019-01-21T04:10:57.994Z,18.05
2019-01-21T04:12:11.656Z,21.10
2019-01-21T04:13:29.265Z,18.95
2019-01-21T04:14:58.495Z,19.77
2019-01-21T04:16:08.105Z,18.62
2019-01-21T04:17:31.461Z,19.50
2019-01-21T04:18:44.859Z,19.55
2019-01-21T04:19:42.187Z,19.23
2019-01-21T04:20:50.547Z,20.62
2019-01-21T04:22:30.660Z,20.40
2019-01-21T04:24:07.943Z,19.32
2019-01-21T04:25:06.419Z,19.90
2019-01-21T04:26:53.467Z,21.05
2019-01-21T04:28:16.348Z,19.02
2019-01-21T04:29:20.070Z,18.80
2019-01-21T04:32:06.671Z,17.48
2019-01-21T04:33:37.508Z,19.37
2019-01-21T04:35:03.288Z,19.45
2019-01-21T04:36:20.461Z,18.48
2019-01-21T04:37:34.440Z,19.57
2019-01-21T04:38:45.087Z,20.15
2019-01-21T04:40:34.860Z,20.50
2019-01-21T04:42:11.589Z,19.73
2019-01-21T04:43:38.067Z,18.82
2019-01-21T04:45:06.186Z,20.52
2019-01-21T04:46:49.860Z,20.70
2019-01-21T04:48:33.032Z,20.15
2019-01-21T04:49:36.329Z,19.92
2019-01-21T04:50:56.187Z,21.85
2019-01-21T04:52:21.826Z,20.37
2019-01-21T04:53:46.621Z,20.52
2019-01-21T04:55:14.641Z,20.50
2019-01-21T04:56:30.979Z,19.40
2019-01-21T04:57:41.616Z,20.62
2019-01-21T04:58:47.293Z,21.17
2019-01-21T05:00:12.548Z,18.77
2019-01-21T05:01:40.248Z,18.82
2019-01-21T05:03:07.292Z,20.45
2019-01-21T05:04:17.960Z,19.23
2019-01-21T05:06:07.595Z,18.27
2019-01-21T05:07:45.051Z,18.20
2019-01-21T05:09:31.624Z,18.77
2019-01-21T05:10:49.133Z,18.35
2019-01-21T05:12:38.453Z,17.30
2019-01-21T05:14:07.940Z,17.95
2019-01-21T05:15:34.886Z,18.25
2019-01-21T05:17:14.808Z,17.60
2019-01-21T05:18:48.029Z,17.90
2019-01-21T05:19:58.114Z,17.20
2019-01-21T05:21:44.687Z,17.87
2019-01-21T05:22:59.820Z,17.17
2019-01-21T05:24:43.182Z,17.10
2019-01-21T05:26:04.788Z,18.00
2019-01-21T05:27:22.380Z,16.35
2019-01-21T05:28:50.958Z,16.67
2019-01-21T05:30:31.210Z,17.37
2019-01-21T05:31:59.103Z,16.97
2019-01-21T05:33:42.841Z,16.02
2019-01-21T05:35:10.768Z,16.67
2019-01-21T05:36:42.064Z,15.85
2019-01-21T05:38:12.140Z,16.07
2019-01-21T05:39:22.988Z,16.35
2019-01-21T05:40:46.813Z,17.42
2019-01-21T05:42:30.004Z,16.32
2019-01-21T05:43:45.238Z,16.65
2019-01-21T05:45:09.709Z,17.67
2019-01-21T05:46:13.928Z,17.00
2019-01-21T05:47:50.030Z,17.85
2019-01-21T05:49:05.556Z,17.05
2019-01-21T05:50:43.712Z,16.93
2019-01-21T05:52:21.046Z,17.30
2019-01-21T05:53:38.645Z,17.98
2019-01-21T05:55:15.827Z,15.95
2019-01-21T05:56:59.286Z,15.80
2019-01-21T05:58:36.639Z,15.30
2019-01-21T05:59:57.098Z,16.73
2019-01-21T06:01:22.810Z,16.32
2019-01-21T06:02:35.233Z,16.12
2019-01-21T06:03:44.859Z,16.30
2019-01-21T06:04:54.679Z,16.60
2019-01-21T06:06:19.950Z,16.73
2019-01-21T06:07:37.716Z,17.25
2019-01-21T06:08:49.992Z,16.95
2019-01-21T06:09:50.914Z,16.82
2019-01-21T06:10:45.713Z,16.95
2019-01-21T06:11:59.563Z,17.02
2019-01-21T06:12:57.782Z,17.17
2019-01-21T06:14:08.259Z,17.10
2019-01-21T06:15:35.134Z,16.05
2019-01-21T06:16:47.692Z,15.75
2019-01-21T06:18:14.843Z,16.75
2019-01-21T06:19:54.361Z,15.75
2019-01-21T06:21:25.072Z,16.42
2019-01-21T06:22:50.403Z,15.55
2019-01-21T06:23:57.657Z,15.43
2019-01-21T06:25:25.187Z,16.57
2019-01-21T06:27:14.703Z,17.12
2019-01-21T06:28:37.787Z,14.87
2019-01-21T06:29:56.030Z,17.02
2019-01-21T06:31:21.121Z,15.83
2019-01-21T06:32:42.994Z,16.23
2019-01-21T06:33:57.559Z,15.83
2019-01-21T06:35:10.848Z,16.05
2019-01-21T06:36:23.025Z,15.60
2019-01-21T06:37:51.416Z,16.75
2019-01-21T06:38:59.351Z,15.10
2019-01-21T06:40:42.130Z,17.15
2019-01-21T06:41:49.165Z,15.23
2019-01-21T06:42:50.680Z,16.60
2019-01-21T06:44:16.371Z,16.07
2019-01-21T06:45:40.067Z,16.00
2019-01-21T06:47:38.359Z,16.60
2019-01-21T06:49:04.743Z,15.88
2019-01-21T06:50:14.968Z,14.80
2019-01-21T06:51:28.053Z,16.70
2019-01-21T06:53:18.747Z,16.12
2019-01-21T06:54:45.471Z,15.25
2019-01-21T06:56:05.694Z,15.53
2019-01-21T06:57:26.347Z,15.93
2019-01-21T06:58:51.336Z,17.17
2019-01-21T07:00:24.594Z,15.50
2019-01-21T07:01:51.540Z,15.32
2019-01-21T07:03:16.110Z,14.93
2019-01-21T07:05:02.509Z,14.75
2019-01-21T07:06:19.968Z,14.58
2019-01-21T07:07:39.651Z,16.25
2019-01-21T07:09:20.660Z,15.25
2019-01-21T07:10:38.041Z,15.58
2019-01-21T07:11:36.795Z,15.68
2019-01-21T07:12:41.799Z,16.07
2019-01-21T07:14:34.199Z,16.32
2019-01-21T07:15:36.735Z,15.18
2019-01-21T07:16:46.686Z,17.20
2019-01-21T07:18:07.045Z,15.98
2019-01-21T07:19:11.082Z,16.52
2019-01-21T07:20:14.955Z,16.10
2019-01-21T07:21:36.247Z,16.60
2019-01-21T07:22:59.937Z,15.75
2019-01-21T07:24:05.954Z,16.87
2019-01-21T07:25:46.244Z,17.10
2019-01-21T07:27:04.723Z,16.27
2019-01-21T07:28:25.415Z,15.90
2019-01-21T07:29:54.607Z,15.78
2019-01-21T07:31:13.366Z,16.30
2019-01-21T07:32:26.699Z,16.48
2019-01-21T07:33:45.002Z,16.42
2019-01-21T07:34:57.170Z,15.68
2019-01-21T07:36:15.784Z,16.50
2019-01-21T07:37:40.660Z,15.90
2019-01-21T07:38:55.544Z,16.05
2019-01-21T07:40:08.934Z,16.85
2019-01-21T07:41:40.970Z,16.20
2019-01-21T07:43:02.804Z,15.48
2019-01-21T07:44:07.237Z,16.87
2019-01-21T07:45:15.197Z,17.23
2019-01-21T07:46:46.539Z,17.37
2019-01-21T07:48:29.287Z,16.27
2019-01-21T07:49:49.467Z,15.68
2019-01-21T07:50:56.523Z,16.00
2019-01-21T07:52:05.442Z,17.27
2019-01-21T07:53:29.175Z,15.75
2019-01-21T07:54:45.647Z,16.17
2019-01-21T07:55:56.020Z,16.17
2019-01-21T07:57:35.783Z,16.17
2019-01-21T07:59:07.134Z,16.02
2019-01-21T08:00:19.383Z,15.28
2019-01-21T08:01:24.823Z,16.42
2019-01-21T08:02:43.960Z,16.37
2019-01-21T08:04:27.155Z,15.43
2019-01-21T08:05:37.659Z,15.58
2019-01-21T08:07:03.039Z,14.90
2019-01-21T08:08:08.287Z,15.15
2019-01-21T08:09:28.823Z,15.30
2019-01-21T08:11:11.126Z,15.83
2019-01-21T08:12:48.254Z,15.43
2019-01-21T08:13:59.594Z,15.55
2019-01-21T08:15:11.692Z,15.55
2019-01-21T08:16:45.774Z,16.37
2019-01-21T08:18:21.777Z,16.30
2019-01-21T08:20:04.507Z,16.15
2019-01-21T08:21:41.648Z,15.05
2019-01-21T08:23:23.833Z,15.80
2019-01-21T08:24:43.890Z,14.68
2019-01-21T08:26:17.922Z,15.72
2019-01-21T08:27:45.251Z,15.03
2019-01-21T08:28:59.154Z,15.53
2019-01-21T08:30:26.684Z,15.83
2019-01-21T08:31:17.897Z,14.98
2019-01-21T08:32:45.268Z,15.55
2019-01-21T08:34:06.143Z,16.70
2019-01-21T08:35:13.966Z,15.58
2019-01-21T08:36:41.307Z,15.65
2019-01-21T08:38:14.817Z,15.50
2019-01-21T08:39:34.448Z,16.00
2019-01-21T08:41:14.052Z,15.30
2019-01-21T08:42:31.808Z,16.23
2019-01-21T08:43:28.274Z,15.48
2019-01-21T08:44:59.497Z,16.70
2019-01-21T08:46:17.098Z,15.55
2019-01-21T08:47:41.549Z,16.17
2019-01-21T08:48:58.862Z,15.55
2019-01-21T08:50:38.603Z,16.65
2019-01-21T08:52:04.475Z,16.90
2019-01-21T08:53:38.103Z,16.17
2019-01-21T08:55:08.841Z,16.00
2019-01-21T08:56:35.201Z,16.17
2019-01-21T08:57:59.493Z,15.63
2019-01-21T08:59:31.906Z,15.88
2019-01-21T09:00:55.652Z,16.52
2019-01-21T09:02:12.811Z,15.45
2019-01-21T09:03:39.692Z,17.17
2019-01-21T09:04:58.699Z,15.08
2019-01-21T09:06:01.594Z,15.85
2019-01-21T09:07:18.634Z,16.30
2019-01-21T09:08:46.066Z,15.75
2019-01-21T09:09:49.453Z,17.15
2019-01-21T09:11:09.411Z,16.75
2019-01-21T09:12:39.478Z,16.15
2019-01-21T09:13:56.342Z,16.87
2019-01-21T09:15:42.795Z,16.40
2019-01-21T09:17:19.395Z,14.85
2019-01-21T09:18:31.798Z,16.85
2019-01-21T09:19:52.688Z,15.65
2019-01-21T09:21:11.423Z,16.05
2019-01-21T09:22:22.475Z,15.60
2019-01-21T09:23:26.435Z,16.48
2019-01-21T09:24:45.168Z,16.75
2019-01-21T09:25:56.716Z,17.10
2019-01-21T09:27:32.771Z,15.85
2019-01-21T09:29:16.363Z,15.80
2019-01-21T09:30:40.719Z,15.83
2019-01-21T09:31:51.135Z,15.83
2019-01-21T09:33:02.344Z,16.62
2019-01-21T09:34:14.177Z,16.25
2019-01-21T09:35:40.254Z,16.17
2019-01-21T09:36:59.910Z,16.23
2019-01-21T09:38:12.767Z,16.55
2019-01-21T09:39:39.549Z,16.50
2019-01-21T09:41:03.403Z,15.93
2019-01-21T09:42:17.799Z,14.98
2019-01-21T09:43:25.951Z,17.20
2019-01-21T09:44:30.144Z,16.73
2019-01-21T09:46:13.267Z,17.25
2019-01-21T09:46:58.663Z,15.78
2019-01-21T09:47:43.496Z,16.77
2019-01-21T09:48:28.355Z,17.90
2019-01-21T09:49:13.452Z,16.85
2019-01-21T09:50:00.244Z,17.42
2019-01-21T09:50:47.555Z,17.42
2019-01-21T09:51:34.202Z,17.37
2019-01-21T09:52:24.399Z,17.95
2019-01-21T09:53:10.980Z,16.77
2019-01-21T09:53:57.606Z,17.82
2019-01-21T09:54:43.644Z,17.67
2019-01-21T09:55:30.255Z,17.65
2019-01-21T09:56:19.253Z,16.97
2019-01-21T09:57:06.947Z,18.23
2019-01-21T09:58:04.220Z,17.23
2019-01-21T09:58:53.614Z,17.60
2019-01-21T09:59:40.888Z,17.10
2019-01-21T10:00:27.273Z,17.98
2019-01-21T10:01:13.846Z,17.52
2019-01-21T10:02:04.140Z,18.30
2019-01-21T10:02:54.061Z,18.23
2019-01-21T10:03:40.196Z,17.55
2019-01-21T10:04:55.487Z,16.75
2019-01-21T10:05:44.887Z,17.85
2019-01-21T10:07:31.358Z,17.85
2019-01-21T10:08:31.759Z,17.25
2019-01-21T10:09:55.278Z,18.32
2019-01-21T10:11:25.801Z,17.48
2019-01-21T10:13:05.947Z,17.80
2019-01-21T10:14:20.919Z,17.35
2019-01-21T10:15:16.019Z,18.07
2019-01-21T10:16:41.367Z,18.65
2019-01-21T10:17:56.951Z,19.65
2019-01-21T10:19:09.593Z,20.32
2019-01-21T10:20:40.498Z,20.00
2019-01-21T10:22:08.739Z,21.12
2019-01-21T10:23:33.880Z,20.15
2019-01-21T10:24:51.495Z,19.87
2019-01-21T10:26:25.957Z,20.35
2019-01-21T10:27:39.602Z,19.27
2019-01-21T10:29:06.434Z,19.95
2019-01-21T10:30:19.803Z,19.25
2019-01-21T10:31:51.316Z,19.10
2019-01-21T10:33:22.788Z,19.02
2019-01-21T10:34:44.058Z,20.08
2019-01-21T10:36:14.467Z,19.32
2019-01-21T10:38:06.562Z,20.00
2019-01-21T10:39:43.840Z,18.40
2019-01-21T10:40:50.371Z,19.77
2019-01-21T10:42:17.503Z,18.50
2019-01-21T10:43:51.617Z,20.27
2019-01-21T10:44:59.970Z,19.05
2019-01-21T10:46:29.813Z,19.20
2019-01-21T10:47:28.226Z,19.87
2019-01-21T10:48:24.510Z,19.70
2019-01-21T10:49:57.706Z,19.30
2019-01-21T10:51:35.470Z,20.43
2019-01-21T10:53:23.139Z,21.55
2019-01-21T10:54:39.236Z,18.73
2019-01-21T10:56:23.107Z,20.48
2019-01-21T10:57:48.430Z,19.92
2019-01-21T10:59:15.271Z,20.20
2019-01-21T11:00:55.225Z,19.70
2019-01-21T11:02:21.100Z,20.60
2019-01-21T11:03:41.630Z,20.62
2019-01-21T11:05:03.007Z,19.80
2019-01-21T11:06:22.542Z,20.20
2019-01-21T11:07:32.514Z,20.05
2019-01-21T11:09:18.329Z,20.43
2019-01-21T11:10:34.474Z,19.15
2019-01-21T11:12:04.089Z,20.25
2019-01-21T11:13:07.418Z,19.67
2019-01-21T11:14:24.071Z,20.43
2019-01-21T11:15:28.299Z,19.75
2019-01-21T11:16:31.900Z,18.67
2019-01-21T11:17:58.898Z,20.60
2019-01-21T11:19:22.080Z,19.75
2019-01-21T11:20:56.646Z,21.27
2019-01-21T11:22:17.233Z,19.70
2019-01-21T11:23:40.463Z,19.55
2019-01-21T11:24:50.462Z,18.60
2019-01-21T11:26:14.559Z,20.48
2019-01-21T11:27:36.136Z,20.17
2019-01-21T11:29:00.996Z,20.50
2019-01-21T11:30:32.080Z,21.17
2019-01-21T11:31:51.222Z,20.17
2019-01-21T11:33:25.097Z,20.57
2019-01-21T11:35:02.430Z,20.52
2019-01-21T11:36:35.327Z,19.52
2019-01-21T11:38:02.754Z,20.20
2019-01-21T11:39:48.895Z,19.60
2019-01-21T11:41:26.026Z,22.15
2019-01-21T11:42:26.858Z,21.48
2019-01-21T11:43:46.203Z,20.02
2019-01-21T11:45:18.945Z,21.73
2019-01-21T11:46:26.490Z,18.87
2019-01-21T11:47:54.148Z,20.68
2019-01-21T11:49:21.527Z,21.05
2019-01-21T11:51:02.191Z,21.52
2019-01-21T11:52:17.632Z,21.42
2019-01-21T11:53:49.011Z,21.02
2019-01-21T11:55:26.474Z,20.12
2019-01-21T11:56:45.758Z,20.65
2019-01-21T11:58:17.218Z,21.93
2019-01-21T11:59:54.616Z,19.75
2019-01-21T12:01:20.479Z,21.62
2019-01-21T12:02:45.742Z,21.35
2019-01-21T12:03:43.024Z,20.48
2019-01-21T12:04:56.080Z,20.48
2019-01-21T12:06:10.939Z,20.37
2019-01-21T12:07:17.202Z,22.07
2019-01-21T12:08:18.271Z,22.58
2019-01-21T12:09:42.294Z,21.65
2019-01-21T12:11:10.723Z,21.82
2019-01-21T12:12:48.174Z,22.10
2019-01-21T12:14:34.489Z,20.80
2019-01-21T12:15:50.054Z,19.12
2019-01-21T12:17:04.855Z,20.48
2019-01-21T12:18:29.164Z,20.35
2019-01-21T12:19:41.074Z,19.60
2019-01-21T12:21:04.965Z,19.67
2019-01-21T12:22:35.982Z,19.70
2019-01-21T12:23:56.469Z,19.45
2019-01-21T12:25:08.705Z,17.77
2019-01-21T12:26:06.943Z,18.25
2019-01-21T12:27:15.078Z,20.37
2019-01-21T12:29:04.765Z,19.10
2019-01-21T12:30:18.531Z,20.20
2019-01-21T12:31:15.496Z,19.95
2019-01-21T12:32:49.483Z,20.45
2019-01-21T12:34:08.929Z,19.75
2019-01-21T12:35:25.043Z,19.35
2019-01-21T12:36:19.479Z,19.57
2019-01-21T12:37:46.891Z,21.52
2019-01-21T12:39:03.991Z,21.02
2019-01-21T12:40:43.062Z,20.62
2019-01-21T12:42:14.186Z,20.70
2019-01-21T12:43:35.423Z,21.77
2019-01-21T12:45:18.608Z,22.58
2019-01-21T12:46:48.396Z,22.87
2019-01-21T12:48:00.933Z,21.75
2019-01-21T12:49:33.496Z,21.80
2019-01-21T12:51:00.945Z,20.40
2019-01-21T12:52:18.864Z,21.23
2019-01-21T12:53:22.606Z,21.30
2019-01-21T12:54:46.664Z,21.12
2019-01-21T12:55:42.796Z,21.15
2019-01-21T12:57:26.099Z,22.67
2019-01-21T12:58:53.937Z,22.75
2019-01-21T13:00:06.235Z,20.97
2019-01-21T13:01:21.583Z,20.77
2019-01-21T13:02:49.612Z,21.57
2019-01-21T13:04:02.271Z,21.55
2019-01-21T13:05:29.786Z,21.10
2019-01-21T13:06:54.509Z,20.88
2019-01-21T13:08:09.001Z,21.82
2019-01-21T13:09:21.859Z,21.07
2019-01-21T13:10:48.335Z,21.27
2019-01-21T13:12:06.969Z,22.75
2019-01-21T13:13:38.584Z,23.92
2019-01-21T13:14:57.528Z,20.02
2019-01-21T13:16:32.129Z,24.82
2019-01-21T13:17:51.501Z,21.50
2019-01-21T13:19:22.484Z,21.65
2019-01-21T13:20:50.187Z,21.90
2019-01-21T13:22:21.198Z,21.68
2019-01-21T13:23:36.447Z,20.48
2019-01-21T13:24:42.835Z,20.27
2019-01-21T13:25:59.851Z,21.25
2019-01-21T13:27:18.918Z,19.80
2019-01-21T13:28:40.230Z,19.65
2019-01-21T13:30:02.412Z,20.82
2019-01-21T13:31:14.630Z,19.10
2019-01-21T13:32:58.181Z,20.10
2019-01-21T13:34:22.657Z,18.82
2019-01-21T13:36:01.991Z,19.95
2019-01-21T13:37:39.159Z,20.50
2019-01-21T13:39:04.847Z,20.35
2019-01-21T13:40:16.627Z,21.00
2019-01-21T13:41:42.447Z,19.85
2019-01-21T13:42:59.855Z,19.80
2019-01-21T13:44:50.367Z,20.68
2019-01-21T13:46:05.854Z,17.95
2019-01-21T13:47:45.448Z,18.27
2019-01-21T13:48:48.444Z,17.73
2019-01-21T13:49:58.719Z,18.55
2019-01-21T13:51:32.120Z,19.17
2019-01-21T13:53:05.611Z,18.40
2019-01-21T13:54:18.598Z,18.95
2019-01-21T13:55:30.172Z,18.92
2019-01-21T13:56:46.183Z,19.12
2019-01-21T13:57:56.483Z,19.60
2019-01-21T13:59:23.230Z,19.27
2019-01-21T14:00:33.974Z,20.20
2019-01-21T14:01:40.757Z,19.17
2019-01-21T14:02:54.162Z,19.12
2019-01-21T14:04:25.297Z,20.27
2019-01-21T14:06:01.995Z,19.23
2019-01-21T14:07:18.880Z,18.90
2019-01-21T14:08:18.278Z,19.60
2019-01-21T14:09:52.155Z,19.35
2019-01-21T14:11:20.221Z,19.20
2019-01-21T14:12:22.188Z,20.52
2019-01-21T14:13:51.828Z,20.75
2019-01-21T14:14:50.169Z,20.20
2019-01-21T14:15:58.433Z,20.70
2019-01-21T14:17:32.786Z,20.05
2019-01-21T14:19:06.051Z,20.10
2019-01-21T14:20:27.915Z,19.02
2019-01-21T14:21:30.555Z,19.10
2019-01-21T14:22:43.264Z,20.85
2019-01-21T14:23:34.708Z,20.77
2019-01-21T14:25:02.704Z,20.88
2019-01-21T14:26:36.427Z,19.98
2019-01-21T14:28:12.966Z,20.68
2019-01-21T14:29:46.989Z,20.45
2019-01-21T14:31:26.975Z,19.35
2019-01-21T14:32:33.683Z,19.48
2019-01-21T14:33:46.587Z,18.62
2019-01-21T14:35:17.883Z,19.62
2019-01-21T14:36:41.735Z,20.50
2019-01-21T14:37:54.899Z,20.12
2019-01-21T14:39:06.656Z,19.42
2019-01-21T14:40:03.279Z,19.65
2019-01-21T14:41:35.152Z,20.40
2019-01-21T14:42:54.055Z,20.45
2019-01-21T14:44:43.662Z,20.43
2019-01-21T14:45:54.449Z,19.87
2019-01-21T14:47:23.437Z,19.25
2019-01-21T14:48:33.042Z,19.60
2019-01-21T14:49:57.277Z,20.48
2019-01-21T14:51:31.362Z,20.25
2019-01-21T14:52:43.297Z,20.72
2019-01-21T14:54:00.734Z,20.52
2019-01-21T14:55:10.906Z,21.95
2019-01-21T14:56:37.751Z,22.45
2019-01-21T14:57:31.998Z,21.20
2019-01-21T14:58:31.546Z,22.00
2019-01-21T15:00:08.450Z,21.48
2019-01-21T15:01:16.068Z,21.60
2019-01-21T15:02:19.317Z,22.75
2019-01-21T15:03:37.252Z,23.20
2019-01-21T15:05:11.296Z,22.50
2019-01-21T15:06:15.286Z,21.55
2019-01-21T15:07:39.091Z,23.10
2019-01-21T15:08:37.536Z,22.15
2019-01-21T15:10:21.615Z,23.55
2019-01-21T15:11:49.557Z,22.60
2019-01-21T15:13:17.926Z,23.10
2019-01-21T15:14:41.801Z,20.97
2019-01-21T15:15:54.088Z,21.70
2019-01-21T15:17:21.575Z,22.07
2019-01-21T15:18:33.675Z,20.70
2019-01-21T15:19:51.588Z,21.62
2019-01-21T15:20:47.332Z,21.42
2019-01-21T15:21:59.632Z,23.05
2019-01-21T15:23:32.277Z,22.22
2019-01-21T15:25:09.705Z,23.05
2019-01-21T15:26:22.216Z,21.07
2019-01-21T15:27:55.340Z,22.17
2019-01-21T15:29:22.617Z,22.32
2019-01-21T15:30:58.944Z,21.68
2019-01-21T15:32:07.963Z,21.75
2019-01-21T15:33:12.743Z,21.23
2019-01-21T15:34:11.835Z,22.80
2019-01-21T15:35:45.598Z,22.13
2019-01-21T15:37:09.128Z,22.82
2019-01-21T15:38:22.626Z,22.45
2019-01-21T15:39:26.506Z,22.07
2019-01-21T15:40:59.358Z,22.50
2019-01-21T15:42:30.640Z,22.42
2019-01-21T15:43:29.343Z,23.00
2019-01-21T15:44:27.745Z,22.58
2019-01-21T15:45:59.266Z,24.23
2019-01-21T15:47:27.812Z,23.18
2019-01-21T15:48:57.821Z,23.40